createdAt,value
2018-08-03T00:01:23.457Z,22.94
2018-08-03T00:04:00.608Z,22.99
2018-08-03T00:06:36.991Z,22.99
2018-08-03T00:09:12.586Z,23.01
2018-08-03T00:11:49.106Z,22.79
2018-08-03T00:14:25.861Z,22.73
2018-08-03T00:17:00.892Z,22.84
2018-08-03T00:19:35.755Z,22.82
2018-08-03T00:22:10.396Z,22.83
2018-08-03T00:24:44.892Z,22.79
2018-08-03T00:27:19.368Z,22.80
2018-08-03T00:29:53.896Z,22.83
2018-08-03T00:32:28.656Z,22.82
2018-08-03T00:35:03.700Z,22.88
2018-08-03T00:37:38.786Z,22.80
2018-08-03T00:40:13.357Z,22.64
2018-08-03T00:42:47.715Z,22.73
2018-08-03T00:45:22.684Z,22.68
2018-08-03T00:47:58.524Z,22.73
2018-08-03T00:50:33.380Z,22.65
2018-08-03T00:53:08.077Z,22.58
2018-08-03T00:55:42.812Z,22.60
2018-08-03T00:58:17.139Z,22.55
2018-08-03T01:00:51.551Z,22.51
2018-08-03T01:03:26.064Z,22.50
2018-08-03T01:06:00.897Z,22.51
2018-08-03T01:08:35.320Z,22.55
2018-08-03T01:11:09.775Z,22.51
2018-08-03T01:13:44.794Z,22.50
2018-08-03T01:16:19.218Z,22.44
2018-08-03T01:18:54.063Z,22.41
2018-08-03T01:21:28.507Z,22.36
2018-08-03T01:24:03.676Z,22.34
2018-08-03T01:26:38.560Z,22.33
2018-08-03T01:29:12.931Z,22.29
2018-08-03T01:31:47.925Z,22.25
2018-08-03T01:34:22.334Z,22.19
2018-08-03T01:36:56.987Z,22.16
2018-08-03T01:39:32.104Z,22.08
2018-08-03T01:42:06.723Z,22.01
2018-08-03T01:44:41.308Z,21.99
2018-08-03T01:47:16.117Z,21.95
2018-08-03T01:49:50.825Z,21.97
2018-08-03T01:52:25.676Z,21.96
2018-08-03T01:55:00.832Z,21.96
2018-08-03T01:57:41.435Z,21.93
2018-08-03T02:00:16.116Z,21.93
2018-08-03T02:02:50.929Z,21.89
2018-08-03T02:05:25.440Z,21.88
2018-08-03T02:08:00.293Z,21.87
2018-08-03T02:10:35.111Z,21.93
2018-08-03T02:13:09.924Z,21.95
2018-08-03T02:15:44.762Z,21.93
2018-08-03T02:18:20.200Z,21.94
2018-08-03T02:20:54.740Z,21.90
2018-08-03T02:23:29.644Z,21.85
2018-08-03T02:26:04.503Z,21.86
2018-08-03T02:28:38.983Z,21.85
2018-08-03T02:31:15.016Z,21.83
2018-08-03T02:33:49.408Z,21.79
2018-08-03T02:38:57.784Z,21.73
2018-08-03T02:41:32.688Z,21.74
2018-08-03T02:44:08.134Z,21.74
2018-08-03T02:46:42.811Z,21.72
2018-08-03T02:49:18.022Z,21.69
2018-08-03T02:51:53.410Z,21.69
2018-08-03T02:54:27.811Z,21.62
2018-08-03T02:57:02.652Z,21.55
2018-08-03T02:59:37.356Z,21.50
2018-08-03T03:02:12.260Z,21.44
2018-08-03T03:04:46.714Z,21.37
2018-08-03T03:07:21.442Z,21.35
2018-08-03T03:09:56.079Z,21.38
2018-08-03T03:12:30.570Z,21.43
2018-08-03T03:15:05.485Z,21.42
2018-08-03T03:17:40.246Z,21.46
2018-08-03T03:20:15.052Z,21.44
2018-08-03T03:22:49.497Z,21.39
2018-08-03T03:25:24.292Z,21.38
2018-08-03T03:27:58.848Z,21.36
2018-08-03T03:30:33.388Z,21.34
2018-08-03T03:33:08.917Z,21.31
2018-08-03T03:35:43.460Z,21.32
2018-08-03T03:38:17.925Z,21.27
2018-08-03T03:40:52.349Z,21.26
2018-08-03T03:43:27.012Z,21.23
2018-08-03T03:46:01.520Z,21.22
2018-08-03T03:48:36.379Z,21.23
2018-08-03T03:51:11.168Z,21.24
2018-08-03T03:53:46.083Z,21.20
2018-08-03T03:56:20.684Z,21.21
2018-08-03T03:58:55.388Z,21.17
2018-08-03T04:01:48.669Z,21.10
2018-08-03T04:04:23.178Z,21.03
2018-08-03T04:07:16.042Z,21.01
2018-08-03T04:09:50.845Z,20.99
2018-08-03T04:12:25.517Z,21.01
2018-08-03T04:15:00.167Z,21.06
2018-08-03T04:17:34.732Z,21.03
2018-08-03T04:20:09.760Z,21.05
2018-08-03T04:22:44.679Z,21.07
2018-08-03T04:25:19.424Z,21.06
2018-08-03T05:13:28.476Z,21.04
2018-08-03T05:16:03.158Z,21.25
2018-08-03T05:18:37.608Z,21.47
2018-08-03T05:21:12.721Z,21.64
2018-08-03T05:23:47.684Z,21.72
2018-08-03T05:26:22.977Z,21.85
2018-08-03T05:28:57.836Z,21.98
2018-08-03T05:31:32.623Z,22.19
2018-08-03T05:34:07.412Z,22.35
2018-08-03T05:36:42.469Z,22.33
2018-08-03T05:39:17.267Z,22.35
2018-08-03T05:41:52.184Z,22.33
2018-08-03T05:44:26.593Z,22.43
2018-08-03T05:47:01.266Z,22.48
2018-08-03T05:49:36.999Z,22.58
2018-08-03T05:52:11.714Z,22.71
2018-08-03T05:54:46.723Z,22.77
2018-08-03T05:57:21.429Z,22.83
2018-08-03T05:59:56.992Z,22.99
2018-08-03T06:02:31.855Z,23.07
2018-08-03T06:05:06.937Z,23.10
2018-08-03T06:07:41.970Z,23.19
2018-08-03T06:10:16.624Z,23.24
2018-08-03T06:12:51.149Z,23.27
2018-08-03T06:15:25.965Z,23.23
2018-08-03T06:18:01.093Z,23.30
2018-08-03T06:20:35.568Z,23.37
2018-08-03T06:23:10.152Z,23.40
2018-08-03T06:25:45.006Z,23.35
2018-08-03T06:28:19.624Z,23.40
2018-08-03T06:30:54.701Z,23.43
2018-08-03T06:33:29.246Z,23.52
2018-08-03T06:36:03.921Z,23.63
2018-08-03T06:38:42.152Z,23.64
2018-08-03T06:41:16.844Z,23.74
2018-08-03T06:43:51.589Z,23.79
2018-08-03T06:46:44.057Z,23.79
2018-08-03T06:49:18.472Z,23.75
2018-08-03T06:51:54.052Z,23.73
2018-08-03T06:54:29.144Z,23.84
2018-08-03T06:57:03.536Z,23.93
2018-08-03T06:59:38.377Z,24.06
2018-08-03T07:02:13.188Z,24.11
2018-08-03T07:04:47.722Z,24.11
2018-08-03T07:07:24.044Z,24.19
2018-08-03T07:09:58.582Z,24.22
2018-08-03T07:12:40.135Z,24.29
2018-08-03T07:15:14.733Z,24.28
2018-08-03T07:17:49.142Z,24.33
2018-08-03T07:20:24.036Z,24.40
2018-08-03T07:22:58.552Z,24.55
2018-08-03T07:25:33.061Z,24.70
2018-08-03T07:28:07.622Z,24.83
2018-08-03T07:30:44.581Z,24.85
2018-08-03T07:33:19.090Z,24.85
2018-08-03T07:35:54.240Z,24.94
2018-08-03T07:38:29.469Z,25.01
2018-08-03T07:41:04.678Z,25.10
2018-08-03T07:43:39.612Z,25.27
2018-08-03T07:46:14.080Z,25.36
2018-08-03T07:48:48.729Z,25.31
2018-08-03T07:51:23.328Z,25.38
2018-08-03T07:53:58.336Z,25.50
2018-08-03T07:56:33.243Z,25.62
2018-08-03T07:59:07.727Z,25.76
2018-08-03T08:01:42.138Z,25.84
2018-08-03T08:04:16.592Z,25.93
2018-08-03T08:06:52.741Z,25.91
2018-08-03T08:09:27.449Z,25.95
2018-08-03T08:12:02.457Z,26.03
2018-08-03T08:14:36.974Z,26.12
2018-08-03T08:17:12.023Z,26.23
2018-08-03T08:19:46.762Z,26.33
2018-08-03T08:22:21.668Z,26.43
2018-08-03T08:24:57.081Z,26.57
2018-08-03T08:27:31.924Z,26.72
2018-08-03T08:30:06.936Z,26.72
2018-08-03T08:32:41.772Z,26.83
2018-08-03T08:35:20.594Z,26.95
2018-08-03T08:37:55.318Z,27.18
2018-08-03T08:40:32.153Z,27.48
2018-08-03T08:43:07.133Z,27.90
2018-08-03T08:45:42.051Z,28.30
2018-08-03T08:48:39.045Z,28.64
2018-08-03T08:51:14.234Z,29.00
2018-08-03T08:53:50.809Z,29.29
2018-08-03T08:56:25.990Z,29.40
2018-08-03T08:59:01.519Z,29.70
2018-08-03T09:01:36.178Z,29.99
2018-08-03T09:04:15.841Z,30.08
2018-08-03T09:06:51.348Z,30.31
2018-08-03T09:09:26.217Z,30.38
2018-08-03T09:12:01.096Z,30.53
2018-08-03T09:14:36.447Z,30.90
2018-08-03T09:17:11.367Z,31.32
2018-08-03T09:19:45.820Z,31.49
2018-08-03T09:22:20.156Z,31.48
2018-08-03T09:24:54.569Z,31.27
2018-08-03T09:27:29.057Z,31.35
2018-08-03T09:30:03.740Z,31.67
2018-08-03T09:32:38.628Z,31.77
2018-08-03T09:35:13.073Z,32.03
2018-08-03T09:37:47.609Z,32.09
2018-08-03T09:40:22.064Z,32.11
2018-08-03T09:42:56.957Z,32.21
2018-08-03T09:45:32.193Z,32.55
2018-08-03T09:48:06.769Z,32.37
2018-08-03T09:50:41.462Z,32.23
2018-08-03T09:53:16.224Z,32.23
2018-08-03T09:55:50.788Z,32.46
2018-08-03T09:58:25.512Z,32.73
2018-08-03T10:01:05.381Z,33.13
2018-08-03T10:03:40.551Z,33.17
2018-08-03T10:06:15.188Z,32.63
2018-08-03T10:08:50.064Z,32.62
2018-08-03T10:11:24.901Z,33.02
2018-08-03T10:13:59.561Z,33.26
2018-08-03T10:16:33.899Z,33.44
2018-08-03T10:19:08.740Z,33.65
2018-08-03T10:21:43.724Z,33.47
2018-08-03T10:24:18.500Z,33.76
2018-08-03T10:26:52.956Z,34.11
2018-08-03T10:29:27.620Z,34.49
2018-08-03T10:32:02.632Z,34.68
2018-08-03T10:34:37.791Z,34.63
2018-08-03T10:37:12.594Z,34.16
2018-08-03T10:39:46.903Z,33.97
2018-08-03T10:42:21.401Z,34.00
2018-08-03T10:44:56.012Z,34.20
2018-08-03T10:47:30.709Z,34.55
2018-08-03T10:50:05.648Z,34.72
2018-08-03T10:52:40.400Z,35.08
2018-08-03T10:55:15.775Z,35.47
2018-08-03T10:57:51.014Z,35.85
2018-08-03T11:00:28.794Z,35.52
2018-08-03T11:03:05.783Z,35.14
2018-08-03T11:05:40.908Z,35.23
2018-08-03T11:08:15.760Z,35.21
2018-08-03T11:10:50.817Z,34.89
2018-08-03T11:13:25.388Z,35.04
2018-08-03T11:15:59.728Z,34.97
2018-08-03T11:18:34.128Z,35.11
2018-08-03T11:21:09.244Z,35.23
2018-08-03T11:23:45.428Z,35.52
2018-08-03T11:26:20.308Z,35.56
2018-08-03T11:29:11.119Z,35.49
2018-08-03T11:31:45.448Z,35.39
2018-08-03T11:34:20.413Z,35.43
2018-08-03T11:36:55.104Z,34.83
2018-08-03T11:39:29.988Z,33.85
2018-08-03T11:42:04.648Z,33.10
2018-08-03T11:44:39.548Z,32.82
2018-08-03T11:47:13.850Z,32.19
2018-08-03T11:49:48.665Z,31.95
2018-08-03T11:52:23.626Z,31.81
2018-08-03T11:54:57.937Z,32.05
2018-08-03T11:57:32.904Z,32.99
2018-08-03T12:00:08.372Z,33.69
2018-08-03T12:02:42.998Z,34.50
2018-08-03T12:05:23.217Z,35.16
2018-08-03T12:07:57.674Z,35.43
2018-08-03T12:10:32.957Z,35.72
2018-08-03T12:13:07.429Z,35.87
2018-08-03T12:15:41.745Z,36.00
2018-08-03T12:18:16.628Z,36.15
2018-08-03T12:20:51.325Z,36.58
2018-08-03T12:23:31.455Z,36.52
2018-08-03T12:26:12.473Z,36.45
2018-08-03T12:28:47.349Z,35.68
2018-08-03T12:31:22.147Z,34.96
2018-08-03T12:33:58.343Z,34.74
2018-08-03T12:36:44.332Z,35.58
2018-08-03T12:39:19.129Z,36.31
2018-08-03T12:42:01.240Z,36.61
2018-08-03T12:44:42.054Z,37.06
2018-08-03T12:47:18.062Z,37.51
2018-08-03T12:49:53.704Z,37.22
2018-08-03T12:52:29.537Z,37.34
2018-08-03T12:55:04.211Z,37.55
2018-08-03T12:57:38.748Z,36.65
2018-08-03T13:00:14.144Z,35.62
2018-08-03T13:02:48.426Z,34.67
2018-08-03T13:05:22.841Z,34.05
2018-08-03T13:08:02.396Z,34.50
2018-08-03T13:10:40.960Z,35.04
2018-08-03T13:13:18.899Z,35.58
2018-08-03T13:15:53.581Z,36.20
2018-08-03T13:18:27.996Z,36.51
2018-08-03T13:21:41.076Z,36.83
2018-08-03T13:24:15.873Z,37.01
2018-08-03T13:26:50.671Z,37.21
2018-08-03T13:29:25.454Z,37.18
2018-08-03T13:32:02.650Z,37.28
2018-08-03T13:34:37.904Z,37.06
2018-08-03T13:37:13.403Z,36.92
2018-08-03T13:39:47.982Z,36.99
2018-08-03T13:42:22.632Z,37.26
2018-08-03T13:44:57.021Z,37.46
2018-08-03T13:47:31.444Z,37.49
2018-08-03T13:50:06.229Z,37.50
2018-08-03T13:52:40.567Z,37.47
2018-08-03T13:55:15.621Z,37.57
2018-08-03T13:57:55.200Z,37.56
2018-08-03T14:00:29.990Z,37.41
2018-08-03T14:03:04.497Z,37.48
2018-08-03T14:05:39.543Z,36.95
2018-08-03T14:08:13.892Z,36.81
2018-08-03T14:10:48.743Z,36.69
2018-08-03T14:13:23.972Z,36.90
2018-08-03T14:15:58.512Z,37.05
2018-08-03T14:18:33.556Z,37.24
2018-08-03T14:21:08.983Z,37.26
2018-08-03T14:23:44.361Z,37.21
2018-08-03T14:26:23.591Z,37.37
2018-08-03T14:28:58.056Z,37.46
2018-08-03T14:31:33.481Z,37.42
2018-08-03T14:34:08.196Z,37.45
2018-08-03T14:36:43.318Z,37.48
2018-08-03T14:39:18.328Z,37.49
2018-08-03T14:41:53.301Z,37.59
2018-08-03T14:44:28.856Z,37.52
2018-08-03T14:47:03.714Z,37.55
2018-08-03T14:49:38.534Z,37.20
2018-08-03T14:52:13.836Z,36.92
2018-08-03T14:54:48.285Z,37.05
2018-08-03T14:57:24.210Z,37.09
2018-08-03T14:59:58.704Z,37.22
2018-08-03T15:02:34.036Z,37.03
2018-08-03T15:05:08.597Z,36.96
2018-08-03T15:07:43.235Z,36.98
2018-08-03T15:10:17.792Z,37.06
2018-08-03T15:12:52.555Z,36.99
2018-08-03T15:15:27.367Z,37.06
2018-08-03T15:18:02.125Z,37.22
2018-08-03T15:20:44.159Z,37.25
2018-08-03T15:23:19.017Z,36.69
2018-08-03T15:25:53.952Z,35.88
2018-08-03T15:28:30.133Z,34.93
2018-08-03T15:31:04.875Z,34.31
2018-08-03T15:33:39.838Z,34.02
2018-08-03T15:36:14.904Z,33.95
2018-08-03T15:38:49.666Z,33.68
2018-08-03T15:41:24.921Z,33.63
2018-08-03T15:43:59.805Z,33.92
2018-08-03T15:46:34.383Z,34.43
2018-08-03T15:49:09.452Z,34.81
2018-08-03T15:51:44.004Z,35.02
2018-08-03T15:54:18.727Z,35.21
2018-08-03T15:56:53.275Z,35.30
2018-08-03T15:59:27.888Z,35.38
2018-08-03T16:02:03.290Z,35.29
2018-08-03T16:04:38.077Z,35.23
2018-08-03T16:07:12.603Z,35.13
2018-08-03T16:09:47.754Z,35.18
2018-08-03T16:12:24.029Z,35.23
2018-08-03T16:15:00.656Z,35.30
2018-08-03T16:17:37.169Z,35.23
2018-08-03T16:20:31.200Z,35.29
2018-08-03T16:23:06.309Z,35.20
2018-08-03T16:25:45.265Z,35.22
2018-08-03T16:28:19.728Z,34.98
2018-08-03T16:30:54.076Z,34.88
2018-08-03T16:33:28.441Z,34.83
2018-08-03T16:36:03.323Z,34.71
2018-08-03T16:38:38.242Z,34.50
2018-08-03T16:41:13.477Z,34.34
2018-08-03T16:43:48.476Z,34.44
2018-08-03T16:46:26.321Z,34.40
2018-08-03T16:49:00.952Z,34.25
2018-08-03T16:51:39.188Z,34.12
2018-08-03T16:54:15.389Z,34.05
2018-08-03T16:56:56.905Z,33.94
2018-08-03T16:59:33.660Z,33.90
2018-08-03T17:02:08.721Z,33.70
2018-08-03T17:04:43.224Z,33.56
2018-08-03T17:07:18.825Z,33.51
2018-08-03T17:09:53.985Z,33.22
2018-08-03T17:12:37.923Z,33.08
2018-08-03T17:15:18.054Z,33.05
2018-08-03T17:17:53.194Z,32.80
2018-08-03T17:20:28.352Z,32.58
2018-08-03T17:23:05.625Z,32.36
2018-08-03T17:25:48.019Z,32.18
2018-08-03T17:28:22.885Z,32.02
2018-08-03T17:30:57.481Z,31.87
2018-08-03T17:33:32.179Z,31.74
2018-08-03T17:36:07.801Z,31.70
2018-08-03T17:38:44.133Z,31.63
2018-08-03T17:41:18.990Z,31.52
2018-08-03T17:43:53.303Z,31.39
2018-08-03T17:46:31.676Z,31.30
2018-08-03T17:49:06.048Z,31.21
2018-08-03T17:51:40.714Z,31.15
2018-08-03T17:54:15.245Z,31.08
2018-08-03T17:56:50.284Z,31.05
2018-08-03T17:59:25.111Z,31.00
2018-08-03T18:02:00.090Z,30.93
2018-08-03T18:04:34.773Z,30.87
2018-08-03T18:07:09.197Z,30.80
2018-08-03T18:09:43.629Z,30.80
2018-08-03T18:12:18.816Z,30.68
2018-08-03T18:14:53.348Z,30.55
2018-08-03T18:17:27.641Z,30.45
2018-08-03T18:20:02.117Z,30.39
2018-08-03T18:22:36.852Z,30.35
2018-08-03T18:25:12.294Z,30.26
2018-08-03T18:27:47.120Z,30.19
2018-08-03T18:30:21.507Z,30.12
2018-08-03T18:33:05.413Z,30.00
2018-08-03T18:35:46.962Z,29.92
2018-08-03T18:38:27.388Z,29.80
2018-08-03T18:41:02.231Z,29.70
2018-08-03T18:43:41.213Z,29.52
2018-08-03T18:46:16.476Z,29.43
2018-08-03T18:48:52.012Z,29.28
2018-08-03T18:51:27.152Z,29.10
2018-08-03T18:54:03.388Z,28.93
2018-08-03T18:56:38.033Z,28.76
2018-08-03T18:59:14.990Z,28.64
2018-08-03T19:01:49.803Z,28.50
2018-08-03T19:04:24.136Z,28.32
2018-08-03T19:06:59.508Z,28.26
2018-08-03T19:09:34.759Z,28.10
2018-08-03T19:12:10.115Z,28.03
2018-08-03T19:14:49.796Z,27.96
2018-08-03T19:17:24.825Z,27.86
2018-08-03T19:19:59.803Z,27.77
2018-08-03T19:22:35.086Z,27.61
2018-08-03T19:25:09.891Z,27.47
2018-08-03T19:27:44.389Z,27.37
2018-08-03T19:30:19.084Z,27.33
2018-08-03T19:32:54.108Z,27.25
2018-08-03T19:35:32.641Z,27.14
2018-08-03T19:38:08.448Z,27.05
2018-08-03T19:40:43.527Z,26.96
2018-08-03T19:43:18.354Z,26.86
2018-08-03T19:45:53.128Z,26.80
2018-08-03T19:48:27.414Z,26.74
2018-08-03T19:51:02.080Z,26.76
2018-08-03T19:53:36.457Z,26.64
2018-08-03T19:56:11.276Z,26.56
2018-08-03T19:58:46.495Z,26.47
2018-08-03T20:01:21.549Z,26.39
2018-08-03T20:03:59.396Z,26.28
2018-08-03T20:06:35.512Z,26.17
2018-08-03T20:09:11.645Z,26.01
2018-08-03T20:11:48.977Z,25.93
2018-08-03T20:14:23.554Z,25.84
2018-08-03T20:17:01.519Z,25.75
2018-08-03T20:19:36.024Z,25.70
2018-08-03T20:22:23.669Z,25.67
2018-08-03T20:24:59.718Z,25.58
2018-08-03T20:27:35.502Z,25.57
2018-08-03T20:30:16.761Z,25.57
2018-08-03T20:33:02.348Z,25.55
2018-08-03T20:35:37.172Z,25.42
2018-08-03T20:38:11.838Z,25.32
2018-08-03T20:40:46.604Z,25.29
2018-08-03T20:43:21.125Z,25.28
2018-08-03T20:45:56.110Z,25.21
2018-08-03T20:48:34.717Z,25.16
2018-08-03T20:51:09.464Z,25.14
2018-08-03T20:53:43.795Z,25.20
2018-08-03T20:56:19.201Z,25.19
2018-08-03T20:58:54.093Z,25.19
2018-08-03T21:01:29.720Z,25.19
2018-08-03T21:04:04.932Z,25.15
2018-08-03T21:06:40.235Z,25.03
2018-08-03T21:09:15.585Z,24.87
2018-08-03T21:11:50.589Z,24.77
2018-08-03T21:14:29.271Z,24.67
2018-08-03T21:17:04.065Z,24.58
2018-08-03T21:19:41.249Z,24.52
2018-08-03T21:22:17.485Z,24.46
2018-08-03T21:24:52.809Z,24.39
2018-08-03T21:27:27.997Z,24.41
2018-08-03T21:30:03.413Z,24.50
2018-08-03T21:32:38.744Z,24.40
2018-08-03T21:35:14.036Z,24.32
2018-08-03T21:37:48.443Z,24.25
2018-08-03T21:40:23.711Z,24.21
2018-08-03T21:42:58.736Z,24.18
2018-08-03T21:45:33.189Z,24.14
2018-08-03T21:48:12.274Z,24.05
2018-08-03T21:51:04.164Z,23.98
2018-08-03T21:53:39.081Z,23.89
2018-08-03T21:56:14.074Z,23.84
2018-08-03T21:58:55.168Z,23.76
2018-08-03T22:01:30.384Z,23.67
2018-08-03T22:04:04.718Z,23.60
2018-08-03T22:10:04.123Z,23.49
2018-08-03T22:12:59.044Z,23.42
2018-08-03T22:34:22.326Z,23.20
2018-08-03T22:43:36.889Z,23.06
2018-08-03T22:46:44.066Z,23.03
2018-08-03T22:50:18.940Z,22.95
2018-08-03T22:53:16.213Z,22.82
2018-08-03T23:12:26.766Z,22.57
2018-08-03T23:15:03.887Z,22.56
2018-08-03T23:17:55.793Z,22.49
2018-08-03T23:20:45.500Z,22.43
2018-08-03T23:23:38.537Z,22.40
2018-08-03T23:26:14.429Z,22.38
2018-08-03T23:28:55.108Z,22.47
2018-08-03T23:31:33.459Z,22.53
2018-08-03T23:34:15.167Z,22.52
2018-08-03T23:36:53.354Z,22.54
2018-08-03T23:39:37.792Z,22.53
2018-08-03T23:42:14.013Z,22.48
2018-08-03T23:44:54.624Z,22.43
2018-08-03T23:47:30.828Z,22.32
2018-08-03T23:50:19.962Z,22.24
2018-08-03T23:52:58.293Z,22.17
2018-08-03T23:55:36.630Z,22.11
2018-08-03T23:58:14.083Z,22.06
